X  Zatvori METAR podaci zračne luke     LGBL Nea Anchialos National Airport
Temperatura
34°C Temperatura
18°C Točka rosišta
39% Vlaga



Vjetar
14 MPS
23 KM/S
6 M/S
12 Čvorovi



100°
I
Trenutna situacija

Vedro Vedro
Tlak zraka 1010.84 (hPa) - 29.85 (inHg)
Vidljivost 6 (milje) - 9.7 (km)
Zračna luka
Kôd zračne luke LGBL

Lokacija: Nea Anchialos National Airport
Udaljenost: 74 (mi)

Metar:
LGBL 151050Z 10012KT CAVOK 34/18 Q1011

Vrijeme: 15-07-2024 13:50 EEST